createdAt,value
2022-08-05T00:02:21.884Z,64.12
2022-08-05T00:08:00.410Z,62.89
2022-08-05T00:13:38.998Z,61.75
2022-08-05T00:18:56.689Z,64.23
2022-08-05T00:24:31.139Z,62.56
2022-08-05T00:30:03.419Z,64.91
2022-08-05T00:35:33.592Z,66.62
2022-08-05T00:41:05.155Z,60.59
2022-08-05T00:46:36.883Z,63.95
2022-08-05T00:52:08.459Z,65.49
2022-08-05T00:57:58.431Z,65.00
2022-08-05T03:04:04.238Z,67.45
2022-08-05T03:09:37.423Z,68.15
2022-08-05T03:15:07.509Z,69.33
2022-08-05T03:20:39.505Z,65.34
2022-08-05T03:26:31.543Z,67.85
2022-08-05T03:31:57.261Z,69.96
2022-08-05T03:37:15.607Z,72.26
2022-08-05T03:42:52.004Z,70.86
2022-08-05T03:48:21.845Z,71.03
2022-08-05T03:56:01.658Z,73.17
2022-08-05T03:59:24.670Z,73.66
2022-08-05T04:04:55.484Z,69.82
2022-08-05T04:10:27.924Z,70.50
2022-08-05T04:16:04.210Z,71.60
2022-08-05T04:22:09.703Z,69.74
2022-08-05T04:27:02.369Z,72.58
2022-08-05T04:32:34.323Z,71.68
2022-08-05T04:38:06.767Z,70.03
2022-08-05T04:43:38.022Z,67.93
2022-08-05T04:49:14.602Z,65.81
2022-08-05T04:54:41.612Z,64.68
2022-08-05T05:00:13.296Z,61.73
2022-08-05T05:06:40.280Z,60.69
2022-08-05T05:11:18.813Z,60.60
2022-08-05T05:16:50.997Z,60.80
2022-08-05T05:22:23.840Z,60.42
2022-08-05T05:27:56.069Z,60.40
2022-08-05T05:33:26.009Z,60.19
2022-08-05T05:38:57.792Z,59.83
2022-08-05T05:44:36.955Z,58.55
2022-08-05T05:52:28.647Z,54.84
2022-08-05T05:57:54.215Z,51.67
2022-08-05T06:04:00.310Z,49.28
2022-08-05T06:08:57.824Z,49.94
2022-08-05T06:14:29.576Z,50.46
2022-08-05T06:20:01.381Z,51.13
2022-08-05T06:26:12.308Z,49.05
2022-08-05T06:31:11.257Z,46.03
2022-08-05T06:36:56.647Z,43.75
2022-08-05T06:42:08.781Z,42.37
2022-08-05T06:48:36.776Z,40.56
2022-08-05T06:53:22.573Z,39.88
2022-08-05T06:58:44.164Z,37.82
2022-08-05T07:04:15.772Z,37.32
2022-08-05T07:09:47.865Z,38.58
2022-08-05T07:15:34.663Z,41.37
2022-08-05T07:20:51.215Z,42.26
2022-08-05T07:26:25.628Z,43.15
2022-08-05T07:31:55.358Z,44.08
2022-08-05T07:37:29.311Z,43.93
2022-08-05T07:42:57.783Z,43.42
2022-08-05T07:49:01.797Z,42.52
2022-08-05T07:54:01.804Z,43.24
2022-08-05T07:59:40.024Z,43.65
2022-08-05T08:10:34.652Z,40.51
2022-08-05T08:16:34.608Z,38.31
2022-08-05T08:21:37.942Z,37.35
2022-08-05T08:27:09.496Z,36.54
2022-08-05T08:32:41.885Z,37.25
2022-08-05T08:38:16.600Z,36.01
2022-08-05T08:45:18.095Z,38.36
2022-08-05T08:50:07.739Z,38.65
2022-08-05T08:54:48.785Z,38.11
2022-08-05T09:00:20.472Z,39.50
2022-08-05T09:06:07.941Z,37.91
2022-08-05T09:11:52.033Z,37.29
2022-08-05T09:16:57.828Z,38.88
2022-08-05T09:28:04.308Z,38.57
2022-08-05T09:33:34.993Z,36.94
2022-08-05T09:39:01.300Z,38.51
2022-08-05T09:44:32.941Z,37.32
2022-08-05T09:50:04.432Z,36.92
2022-08-05T09:55:56.478Z,38.33
2022-08-05T10:01:14.615Z,37.82
2022-08-05T10:06:40.075Z,37.27
2022-08-05T10:12:30.735Z,38.93
2022-08-05T10:17:54.427Z,38.44
2022-08-05T10:23:34.277Z,40.01
2022-08-05T10:28:46.663Z,41.19
2022-08-05T10:34:18.303Z,40.64
2022-08-05T10:39:59.214Z,38.63
2022-08-05T10:45:23.732Z,39.43
2022-08-05T10:50:53.709Z,39.90
2022-08-05T10:56:25.151Z,39.52
2022-08-05T11:07:32.771Z,38.80
2022-08-05T11:12:58.375Z,38.78
2022-08-05T11:18:32.614Z,38.73
2022-08-05T11:24:04.924Z,39.00
2022-08-05T11:29:33.984Z,38.83
2022-08-05T11:35:05.459Z,39.08
2022-08-05T11:40:37.130Z,38.78
2022-08-05T11:46:27.041Z,38.97
2022-08-05T11:57:25.331Z,38.02
2022-08-05T12:02:46.059Z,37.63
2022-08-05T12:08:18.043Z,36.77
2022-08-05T12:13:50.074Z,37.16
2022-08-05T12:20:16.713Z,36.79
2022-08-05T12:24:53.314Z,36.99
2022-08-05T12:30:24.927Z,36.56
2022-08-05T12:35:56.919Z,36.06
2022-08-05T12:41:34.515Z,36.17
2022-08-05T12:46:59.892Z,36.10
2022-08-05T12:52:39.530Z,36.15
2022-08-05T13:03:41.616Z,35.99
2022-08-05T13:09:08.540Z,36.58
2022-08-05T13:14:39.017Z,36.25
2022-08-05T13:20:11.482Z,36.65
2022-08-05T13:25:51.830Z,36.57
2022-08-05T13:31:14.697Z,36.25
2022-08-05T13:36:46.225Z,35.81
2022-08-05T13:42:18.036Z,36.47
2022-08-05T13:48:09.848Z,35.88
2022-08-05T13:53:21.374Z,35.27
2022-08-05T13:58:53.880Z,35.53
2022-08-05T14:04:26.582Z,37.13
2022-08-05T14:09:56.377Z,36.37
2022-08-05T14:16:07.547Z,36.12
2022-08-05T14:21:00.187Z,36.03
2022-08-05T14:26:38.555Z,35.70
2022-08-05T14:32:15.978Z,36.02
2022-08-05T14:37:48.069Z,36.19
2022-08-05T14:43:07.406Z,36.03
2022-08-05T14:48:38.948Z,35.54
2022-08-05T14:54:27.690Z,35.31
2022-08-05T14:59:42.585Z,36.13
2022-08-05T15:05:14.339Z,36.21
2022-08-05T15:10:46.767Z,35.60
2022-08-05T15:16:18.022Z,35.65
2022-08-05T15:21:50.129Z,35.70
2022-08-05T15:27:25.729Z,36.05
2022-08-05T15:32:54.215Z,36.28
2022-08-05T15:38:35.388Z,37.08
2022-08-05T15:43:57.938Z,36.88
2022-08-05T15:49:48.048Z,36.10
2022-08-05T15:55:02.209Z,37.55
2022-08-05T16:00:50.854Z,36.17
2022-08-05T16:06:06.150Z,36.41
2022-08-05T16:11:42.366Z,37.86
2022-08-05T16:17:10.095Z,38.15
2022-08-05T16:22:41.776Z,38.44
2022-08-05T16:28:13.517Z,38.55
2022-08-05T16:33:45.178Z,39.27
2022-08-05T16:39:17.009Z,39.08
2022-08-05T16:44:54.350Z,39.48
2022-08-05T16:50:20.620Z,38.96
2022-08-05T16:55:58.470Z,39.36
2022-08-05T17:01:52.982Z,39.93
2022-08-05T17:07:03.322Z,39.82
2022-08-05T17:12:51.079Z,40.92
2022-08-05T17:18:14.086Z,41.49
2022-08-05T17:24:04.778Z,41.49
2022-08-05T17:29:16.729Z,41.84
2022-08-05T17:34:49.325Z,41.72
2022-08-05T17:40:22.440Z,42.29
2022-08-05T17:45:52.578Z,42.76
2022-08-05T17:51:24.658Z,42.59
2022-08-05T17:56:56.497Z,42.41
2022-08-05T18:02:28.866Z,42.79
2022-08-05T18:08:00.619Z,43.44
2022-08-05T18:13:36.774Z,43.44
2022-08-05T18:19:04.290Z,44.08
2022-08-05T18:24:35.842Z,44.02
2022-08-05T18:30:07.655Z,44.36
2022-08-05T18:36:00.490Z,44.42
2022-08-05T18:41:55.809Z,44.98
2022-08-05T18:46:43.416Z,45.14
2022-08-05T18:52:15.322Z,44.30
2022-08-05T18:57:52.811Z,47.68
2022-08-05T19:03:18.943Z,48.92
2022-08-05T19:06:12.424Z,48.58
2022-08-05T19:11:05.103Z,51.97
2022-08-05T19:16:36.907Z,58.16
2022-08-05T19:22:07.784Z,59.78
2022-08-05T19:27:41.027Z,60.98
2022-08-05T19:33:16.914Z,58.88
2022-08-05T19:38:45.526Z,61.44
2022-08-05T19:44:18.392Z,64.55
2022-08-05T19:49:50.101Z,64.82
2022-08-05T20:00:56.419Z,65.33
2022-08-05T20:06:29.201Z,67.38
2022-08-05T20:11:59.943Z,70.83
2022-08-05T20:17:31.437Z,72.71
2022-08-05T20:23:03.006Z,70.81
2022-08-05T20:28:34.598Z,73.33
2022-08-05T20:34:06.513Z,67.04
2022-08-05T20:39:38.465Z,62.37
2022-08-05T20:50:47.998Z,62.11
2022-08-05T20:56:28.813Z,63.06
2022-08-05T21:01:51.382Z,64.31
2022-08-05T21:07:23.187Z,67.21
2022-08-05T21:13:09.081Z,73.80
2022-08-05T21:18:26.797Z,82.14
2022-08-05T21:23:58.380Z,83.38
2022-08-05T21:29:31.785Z,84.68
2022-08-05T21:35:16.829Z,85.08
2022-08-05T21:40:34.929Z,83.05
2022-08-05T21:46:06.849Z,83.59
2022-08-05T21:52:27.829Z,85.79
2022-08-05T21:57:30.699Z,85.75
2022-08-05T22:02:42.551Z,86.50
2022-08-05T22:08:22.206Z,83.89
2022-08-05T22:14:19.510Z,87.34
2022-08-05T22:20:02.680Z,89.42
2022-08-05T22:24:52.181Z,89.72
2022-08-05T22:30:21.862Z,89.55
2022-08-05T22:35:53.986Z,89.45
2022-08-05T22:42:04.765Z,88.89
2022-08-05T22:46:57.281Z,87.75
2022-08-05T22:52:32.317Z,88.16
2022-08-05T23:03:57.356Z,89.52
2022-08-05T23:09:27.425Z,87.90
2022-08-05T23:14:36.737Z,87.72
2022-08-05T23:20:15.525Z,87.43
2022-08-05T23:25:51.447Z,87.46
2022-08-05T23:31:16.892Z,88.23
2022-08-05T23:36:45.182Z,88.88
2022-08-05T23:42:16.734Z,88.71
2022-08-05T23:47:48.583Z,89.35
2022-08-05T23:53:22.512Z,89.74
2022-08-05T23:58:52.143Z,90.32
